createdAt,value
2018-09-22T00:00:01.249Z,10.03
2018-09-22T00:02:29.461Z,10.01
2018-09-22T00:04:57.613Z,10.03
2018-09-22T00:07:25.757Z,10.10
2018-09-22T00:09:53.893Z,10.13
2018-09-22T00:12:22.144Z,10.11
2018-09-22T00:14:50.309Z,10.16
2018-09-22T00:17:18.413Z,10.12
2018-09-22T00:19:46.569Z,10.10
2018-09-22T00:22:14.725Z,10.15
2018-09-22T00:24:42.879Z,10.21
2018-09-22T00:27:11.024Z,10.24
2018-09-22T00:29:39.170Z,10.22
2018-09-22T00:32:07.293Z,10.24
2018-09-22T00:34:35.725Z,10.23
2018-09-22T00:37:03.846Z,10.26
2018-09-22T00:39:31.981Z,10.25
2018-09-22T00:42:00.132Z,10.34
2018-09-22T00:44:28.261Z,10.27
2018-09-22T00:46:56.437Z,10.18
2018-09-22T00:49:24.609Z,10.28
2018-09-22T00:51:52.756Z,10.22
2018-09-22T00:54:20.892Z,10.26
2018-09-22T00:56:49.040Z,10.27
2018-09-22T00:59:17.197Z,10.31
2018-09-22T01:01:45.340Z,10.24
2018-09-22T01:04:13.492Z,10.34
2018-09-22T01:06:41.627Z,10.34
2018-09-22T01:09:09.774Z,10.41
2018-09-22T01:11:38.459Z,10.45
2018-09-22T01:14:07.152Z,10.52
2018-09-22T01:16:35.334Z,10.52
2018-09-22T01:19:03.453Z,10.59
2018-09-22T01:21:31.612Z,10.58
2018-09-22T01:23:59.726Z,10.66
2018-09-22T01:26:27.873Z,10.68
2018-09-22T01:28:56.032Z,10.62
2018-09-22T01:31:24.182Z,10.70
2018-09-22T01:33:52.336Z,10.71
2018-09-22T01:36:20.458Z,10.66
2018-09-22T01:38:48.633Z,10.68
2018-09-22T01:41:16.770Z,10.72
2018-09-22T01:43:44.900Z,10.77
2018-09-22T01:46:13.078Z,10.75
2018-09-22T01:48:41.204Z,10.72
2018-09-22T01:51:09.342Z,10.80
2018-09-22T01:53:37.484Z,10.85
2018-09-22T01:56:05.641Z,10.91
2018-09-22T01:58:33.737Z,10.90
2018-09-22T02:01:01.884Z,10.93
2018-09-22T02:03:30.010Z,10.98
2018-09-22T02:05:58.144Z,10.82
2018-09-22T02:08:26.291Z,10.83
2018-09-22T02:10:54.429Z,10.69
2018-09-22T02:13:22.582Z,10.75
2018-09-22T02:15:50.730Z,10.75
2018-09-22T02:18:18.853Z,10.77
2018-09-22T02:20:46.982Z,10.80
2018-09-22T02:23:15.125Z,10.76
2018-09-22T02:25:43.316Z,10.73
2018-09-22T02:28:11.460Z,10.71
2018-09-22T02:30:39.603Z,10.71
2018-09-22T02:33:07.770Z,10.77
2018-09-22T02:35:35.872Z,10.77
2018-09-22T02:38:04.051Z,10.69
2018-09-22T02:40:32.262Z,10.64
2018-09-22T02:43:00.438Z,10.76
2018-09-22T02:45:28.576Z,10.78
2018-09-22T02:47:56.734Z,10.74
2018-09-22T02:50:24.861Z,10.58
2018-09-22T02:52:53.007Z,10.66
2018-09-22T02:55:21.122Z,10.64
2018-09-22T02:57:49.237Z,10.58
2018-09-22T03:00:17.487Z,10.58
2018-09-22T03:02:45.611Z,10.53
2018-09-22T03:05:13.764Z,10.60
2018-09-22T03:07:42.064Z,10.55
2018-09-22T03:10:10.223Z,10.65
2018-09-22T03:12:38.356Z,10.62
2018-09-22T03:15:06.942Z,10.55
2018-09-22T03:17:35.145Z,10.60
2018-09-22T03:20:03.297Z,10.48
2018-09-22T03:22:31.422Z,10.54
2018-09-22T03:24:59.563Z,10.56
2018-09-22T03:27:27.713Z,10.68
2018-09-22T03:29:55.945Z,10.79
2018-09-22T03:32:24.150Z,10.76
2018-09-22T03:34:52.254Z,10.62
2018-09-22T03:37:20.393Z,10.79
2018-09-22T03:39:48.545Z,10.56
2018-09-22T03:42:16.718Z,10.49
2018-09-22T03:44:44.841Z,10.42
2018-09-22T03:47:13.009Z,10.29
2018-09-22T03:49:41.159Z,10.41
2018-09-22T03:52:09.342Z,10.35
2018-09-22T03:54:37.475Z,10.29
2018-09-22T03:57:05.721Z,10.34
2018-09-22T03:59:33.910Z,10.32
2018-09-22T04:02:02.074Z,10.34
2018-09-22T04:04:30.217Z,10.32
2018-09-22T04:06:58.372Z,10.32
2018-09-22T04:09:26.524Z,10.36
2018-09-22T04:11:54.665Z,10.31
2018-09-22T04:14:22.801Z,10.36
2018-09-22T04:16:50.957Z,10.28
2018-09-22T04:19:19.122Z,10.32
2018-09-22T04:21:47.286Z,10.46
2018-09-22T04:24:20.152Z,10.37
2018-09-22T04:26:49.976Z,10.37
2018-09-22T04:29:18.746Z,10.29
2018-09-22T04:31:46.921Z,10.16
2018-09-22T04:34:15.030Z,10.20
2018-09-22T04:36:43.792Z,10.23
2018-09-22T04:39:11.965Z,10.31
2018-09-22T04:41:41.610Z,10.35
2018-09-22T04:44:09.887Z,10.34
2018-09-22T04:46:38.121Z,10.34
2018-09-22T04:49:06.332Z,10.20
2018-09-22T04:51:34.500Z,10.21
2018-09-22T04:54:02.670Z,10.24
2018-09-22T04:56:31.077Z,10.02
2018-09-22T04:58:59.233Z,9.93
2018-09-22T05:01:27.737Z,9.99
2018-09-22T05:03:56.353Z,9.99
2018-09-22T05:06:24.506Z,9.98
2018-09-22T05:08:52.640Z,10.03
2018-09-22T05:11:20.769Z,9.96
2018-09-22T05:13:48.891Z,9.83
2018-09-22T05:16:20.008Z,9.83
2018-09-22T05:18:48.137Z,9.84
2018-09-22T05:21:16.259Z,9.84
2018-09-22T05:23:45.144Z,9.87
2018-09-22T05:26:13.277Z,9.78
2018-09-22T05:28:41.448Z,9.80
2018-09-22T05:31:09.597Z,9.80
2018-09-22T05:33:37.743Z,9.85
2018-09-22T05:36:05.867Z,10.01
2018-09-22T05:38:34.005Z,10.02
2018-09-22T05:41:02.188Z,10.00
2018-09-22T05:43:30.356Z,9.96
2018-09-22T05:45:58.509Z,10.00
2018-09-22T05:48:26.657Z,10.07
2018-09-22T05:50:54.815Z,10.10
2018-09-22T05:53:22.955Z,10.16
2018-09-22T05:55:51.085Z,10.31
2018-09-22T05:58:19.220Z,10.41
2018-09-22T06:00:47.372Z,10.41
2018-09-22T06:03:15.538Z,10.42
2018-09-22T06:05:43.677Z,10.46
2018-09-22T06:08:11.824Z,10.38
2018-09-22T06:10:40.047Z,10.35
2018-09-22T06:13:08.198Z,10.35
2018-09-22T06:15:37.034Z,10.36
2018-09-22T06:18:05.229Z,10.29
2018-09-22T06:20:33.376Z,10.44
2018-09-22T06:23:01.579Z,10.46
2018-09-22T06:25:29.669Z,10.37
2018-09-22T06:27:57.864Z,10.55
2018-09-22T06:30:26.098Z,10.59
2018-09-22T06:32:54.215Z,10.64
2018-09-22T06:35:22.357Z,10.67
2018-09-22T06:37:50.509Z,10.79
2018-09-22T06:40:18.689Z,10.81
2018-09-22T06:42:47.064Z,10.78
2018-09-22T06:45:16.017Z,10.93
2018-09-22T06:47:46.525Z,10.97
2018-09-22T06:50:15.051Z,11.13
2018-09-22T06:52:43.605Z,11.10
2018-09-22T06:55:12.194Z,11.21
2018-09-22T06:57:41.333Z,11.21
2018-09-22T07:00:09.621Z,11.34
2018-09-22T07:02:38.722Z,11.40
2018-09-22T07:05:07.282Z,11.37
2018-09-22T07:07:37.398Z,11.67
2018-09-22T07:10:05.592Z,11.63
2018-09-22T07:12:33.824Z,11.74
2018-09-22T07:15:02.028Z,11.88
2018-09-22T07:17:30.399Z,11.89
2018-09-22T07:19:58.585Z,12.01
2018-09-22T07:22:32.165Z,12.06
2018-09-22T07:25:00.305Z,12.32
2018-09-22T07:27:28.460Z,12.18
2018-09-22T07:29:56.621Z,12.31
2018-09-22T07:32:24.773Z,12.43
2018-09-22T07:34:52.949Z,12.31
2018-09-22T07:37:21.122Z,12.28
2018-09-22T07:39:49.313Z,12.48
2018-09-22T07:42:17.459Z,12.41
2018-09-22T07:44:45.601Z,12.54
2018-09-22T07:47:13.791Z,12.74
2018-09-22T07:49:41.999Z,12.53
2018-09-22T07:52:10.286Z,12.89
2018-09-22T07:54:38.464Z,12.95
2018-09-22T07:57:06.633Z,12.85
2018-09-22T07:59:34.798Z,13.08
2018-09-22T08:02:03.001Z,13.16
2018-09-22T08:04:31.145Z,13.07
2018-09-22T08:06:59.253Z,13.37
2018-09-22T08:09:27.468Z,13.59
2018-09-22T08:11:55.670Z,13.69
2018-09-22T08:14:23.833Z,13.60
2018-09-22T08:16:52.016Z,13.53
2018-09-22T08:19:20.117Z,13.89
2018-09-22T08:21:48.248Z,13.81
2018-09-22T08:24:16.393Z,13.87
2018-09-22T08:26:44.549Z,13.73
2018-09-22T08:29:12.738Z,13.70
2018-09-22T08:31:40.852Z,13.92
2018-09-22T08:34:09.039Z,13.89
2018-09-22T08:36:37.360Z,14.10
2018-09-22T08:39:08.118Z,14.12
2018-09-22T08:41:36.249Z,14.08
2018-09-22T08:44:04.447Z,14.35
2018-09-22T08:46:32.575Z,14.27
2018-09-22T08:49:00.847Z,14.30
2018-09-22T08:51:29.027Z,14.49
2018-09-22T08:53:57.301Z,14.67
2018-09-22T08:56:25.460Z,14.41
2018-09-22T08:58:53.609Z,14.27
2018-09-22T09:01:21.748Z,14.43
2018-09-22T09:03:49.921Z,14.69
2018-09-22T09:06:18.104Z,14.93
2018-09-22T09:08:46.275Z,15.01
2018-09-22T09:11:14.551Z,15.00
2018-09-22T09:13:43.171Z,14.87
2018-09-22T09:16:11.237Z,14.71
2018-09-22T09:18:39.369Z,14.95
2018-09-22T09:21:07.565Z,14.87
2018-09-22T09:23:35.749Z,14.67
2018-09-22T09:26:03.904Z,14.76
2018-09-22T09:28:32.020Z,15.10
2018-09-22T09:31:00.176Z,15.37
2018-09-22T09:33:28.300Z,15.49
2018-09-22T09:35:56.504Z,15.53
2018-09-22T09:38:24.673Z,15.30
2018-09-22T09:40:52.848Z,15.46
2018-09-22T09:43:21.050Z,14.79
2018-09-22T09:45:49.188Z,14.98
2018-09-22T09:48:17.404Z,14.85
2018-09-22T09:50:45.564Z,14.84
2018-09-22T09:53:13.927Z,14.71
2018-09-22T09:55:42.709Z,14.64
2018-09-22T09:58:10.871Z,14.80
2018-09-22T10:00:46.855Z,14.68
2018-09-22T10:03:16.759Z,15.04
2018-09-22T10:05:45.425Z,15.29
2018-09-22T10:08:13.740Z,15.19
2018-09-22T10:10:41.873Z,15.44
2018-09-22T10:13:09.992Z,15.59
2018-09-22T10:15:38.176Z,15.71
2018-09-22T10:18:06.444Z,15.35
2018-09-22T10:20:34.776Z,15.25
2018-09-22T10:23:03.172Z,15.69
2018-09-22T10:25:31.378Z,15.74
2018-09-22T10:27:59.657Z,15.66
2018-09-22T10:30:27.960Z,15.44
2018-09-22T10:32:56.124Z,15.31
2018-09-22T10:35:24.344Z,15.08
2018-09-22T10:37:52.593Z,15.07
2018-09-22T10:40:20.760Z,15.09
2018-09-22T10:42:48.951Z,15.18
2018-09-22T10:45:17.168Z,15.21
2018-09-22T10:47:45.352Z,15.07
2018-09-22T10:50:13.557Z,15.08
2018-09-22T10:52:41.848Z,15.32
2018-09-22T10:55:09.926Z,15.58
2018-09-22T10:57:38.112Z,15.60
2018-09-22T11:00:06.317Z,15.91
2018-09-22T11:02:34.475Z,15.95
2018-09-22T11:05:02.585Z,15.97
2018-09-22T11:07:31.241Z,15.99
2018-09-22T11:09:59.348Z,16.06
2018-09-22T11:12:27.497Z,16.07
2018-09-22T11:14:55.696Z,16.48
2018-09-22T11:17:23.888Z,16.23
2018-09-22T11:19:52.047Z,16.34
2018-09-22T11:22:20.250Z,16.76
2018-09-22T11:24:48.349Z,16.64
2018-09-22T11:27:16.483Z,17.03
2018-09-22T11:29:44.629Z,17.20
2018-09-22T11:32:12.733Z,17.11
2018-09-22T11:34:40.901Z,16.71
2018-09-22T11:37:09.050Z,16.52
2018-09-22T11:39:37.243Z,16.59
2018-09-22T11:42:05.402Z,16.08
2018-09-22T11:44:33.548Z,15.99
2018-09-22T11:47:01.697Z,15.98
2018-09-22T11:49:29.847Z,16.00
2018-09-22T11:51:57.972Z,16.26
2018-09-22T11:54:26.147Z,16.01
2018-09-22T11:56:54.265Z,15.83
2018-09-22T11:59:22.401Z,15.69
2018-09-22T12:01:50.624Z,15.67
2018-09-22T12:04:18.733Z,15.53
2018-09-22T12:06:47.047Z,15.44
2018-09-22T12:09:15.003Z,15.30
2018-09-22T12:11:43.128Z,15.30
2018-09-22T12:14:11.381Z,15.31
2018-09-22T12:16:39.458Z,15.31
2018-09-22T12:19:07.582Z,15.18
2018-09-22T12:21:35.713Z,15.27
2018-09-22T12:24:03.829Z,15.28
2018-09-22T12:26:31.967Z,15.18
2018-09-22T12:29:00.193Z,15.07
2018-09-22T12:31:28.332Z,14.21
2018-09-22T12:33:56.489Z,12.93
2018-09-22T12:36:24.632Z,12.68
2018-09-22T12:38:52.780Z,12.50
2018-09-22T12:41:20.952Z,12.36
2018-09-22T12:43:49.090Z,12.43
2018-09-22T12:46:17.245Z,12.38
2018-09-22T12:48:45.376Z,12.22
2018-09-22T12:51:13.505Z,12.22
2018-09-22T12:53:42.558Z,12.05
2018-09-22T12:56:10.703Z,12.13
2018-09-22T12:58:38.853Z,12.14
2018-09-22T13:01:07.149Z,12.28
2018-09-22T13:03:35.319Z,12.28
2018-09-22T13:06:03.389Z,12.28
2018-09-22T13:08:31.555Z,12.28
2018-09-22T13:10:59.719Z,12.35
2018-09-22T13:13:27.997Z,12.40
2018-09-22T13:15:56.006Z,12.32
2018-09-22T13:18:24.154Z,12.24
2018-09-22T13:20:52.377Z,12.33
2018-09-22T13:23:20.479Z,12.35
2018-09-22T13:25:48.653Z,12.39
2018-09-22T13:28:16.756Z,12.29
2018-09-22T13:30:44.932Z,12.34
2018-09-22T13:33:13.053Z,12.37
2018-09-22T13:35:41.204Z,12.27
2018-09-22T13:38:09.369Z,12.29
2018-09-22T13:40:37.867Z,12.13
2018-09-22T13:43:06.018Z,12.20
2018-09-22T13:45:34.125Z,12.21
2018-09-22T13:48:02.418Z,12.24
2018-09-22T13:50:30.582Z,12.23
2018-09-22T13:52:58.698Z,12.38
2018-09-22T13:55:26.831Z,12.33
2018-09-22T13:57:54.959Z,12.46
2018-09-22T14:00:23.056Z,12.53
2018-09-22T14:02:51.172Z,12.49
2018-09-22T14:05:19.324Z,12.58
2018-09-22T14:07:47.473Z,12.51
2018-09-22T14:10:15.720Z,12.64
2018-09-22T14:12:43.728Z,12.70
2018-09-22T14:15:11.836Z,12.69
2018-09-22T14:17:39.959Z,12.66
2018-09-22T14:20:08.052Z,12.74
2018-09-22T14:22:36.204Z,12.72
2018-09-22T14:25:04.392Z,12.80
2018-09-22T14:27:32.531Z,12.75
2018-09-22T14:30:00.717Z,12.75
2018-09-22T14:32:28.836Z,12.82
2018-09-22T14:34:57.002Z,12.79
2018-09-22T14:37:25.161Z,12.80
2018-09-22T14:39:53.533Z,12.78
2018-09-22T14:42:21.740Z,12.81
2018-09-22T14:44:49.900Z,12.87
2018-09-22T14:47:18.072Z,12.94
2018-09-22T14:49:46.255Z,12.89
2018-09-22T14:52:14.420Z,12.85
2018-09-22T14:54:42.597Z,12.83
2018-09-22T14:57:11.021Z,12.85
2018-09-22T14:59:39.217Z,12.88
2018-09-22T15:02:07.555Z,12.84
2018-09-22T15:04:35.731Z,12.99
2018-09-22T15:07:03.920Z,12.90
2018-09-22T15:09:32.136Z,12.86
2018-09-22T15:12:00.284Z,12.94
2018-09-22T15:14:28.685Z,12.96
2018-09-22T15:16:57.177Z,12.88
2018-09-22T15:19:25.325Z,12.94
2018-09-22T15:21:53.474Z,12.89
2018-09-22T15:24:21.628Z,12.90
2018-09-22T15:26:49.745Z,12.86
2018-09-22T15:29:17.912Z,12.87
2018-09-22T15:31:46.039Z,12.86
2018-09-22T15:34:14.188Z,12.88
2018-09-22T15:36:42.318Z,13.01
2018-09-22T15:39:10.751Z,12.97
2018-09-22T15:41:38.876Z,12.84
2018-09-22T15:44:06.985Z,12.66
2018-09-22T15:46:35.109Z,12.58
2018-09-22T15:49:03.241Z,12.62
2018-09-22T15:51:31.401Z,12.44
2018-09-22T15:53:59.567Z,12.30
2018-09-22T15:56:27.695Z,12.08
2018-09-22T15:58:55.813Z,11.94
2018-09-22T16:01:23.971Z,11.83
2018-09-22T16:03:52.112Z,11.82
2018-09-22T16:06:20.256Z,11.83
2018-09-22T16:08:48.446Z,11.75
2018-09-22T16:11:16.886Z,11.78
2018-09-22T16:13:46.401Z,11.83
2018-09-22T16:16:14.537Z,11.90
2018-09-22T16:18:42.645Z,11.84
2018-09-22T16:21:10.773Z,11.88
2018-09-22T16:23:39.320Z,11.88
2018-09-22T16:26:07.541Z,11.96
2018-09-22T16:28:35.785Z,11.79
2018-09-22T16:31:04.728Z,11.86
2018-09-22T16:33:32.849Z,11.86
2018-09-22T16:36:01.004Z,11.93
2018-09-22T16:38:29.117Z,11.96
2018-09-22T16:40:57.213Z,11.99
2018-09-22T16:43:25.339Z,12.03
2018-09-22T16:45:53.468Z,12.03
2018-09-22T16:48:21.597Z,11.99
2018-09-22T16:50:49.733Z,12.09
2018-09-22T16:53:17.913Z,12.08
2018-09-22T16:55:46.044Z,12.02
2018-09-22T16:58:14.157Z,12.02
2018-09-22T17:00:42.312Z,12.05
2018-09-22T17:03:10.460Z,12.11
2018-09-22T17:05:38.578Z,12.14
2018-09-22T17:08:06.720Z,12.08
2018-09-22T17:10:34.856Z,12.10
2018-09-22T17:13:02.973Z,12.12
2018-09-22T17:15:31.082Z,12.10
2018-09-22T17:17:59.197Z,12.10
2018-09-22T17:20:27.317Z,12.12
2018-09-22T17:22:55.421Z,12.10
2018-09-22T17:25:23.757Z,12.12
2018-09-22T17:27:51.908Z,12.11
2018-09-22T17:30:20.556Z,12.12
2018-09-22T17:32:48.786Z,12.17
2018-09-22T17:35:16.902Z,12.21
2018-09-22T17:37:45.405Z,12.12
2018-09-22T17:40:13.525Z,12.19
2018-09-22T17:42:41.656Z,12.19
2018-09-22T17:45:09.840Z,12.09
2018-09-22T17:47:38.026Z,12.13
2018-09-22T17:50:06.177Z,12.12
2018-09-22T17:52:34.309Z,12.10
2018-09-22T17:55:02.437Z,12.09
2018-09-22T17:57:30.553Z,12.11
2018-09-22T17:59:58.676Z,12.09
2018-09-22T18:02:26.828Z,12.01
2018-09-22T18:04:54.999Z,11.90
2018-09-22T18:07:23.108Z,11.98
2018-09-22T18:09:51.265Z,11.92
2018-09-22T18:12:19.432Z,11.85
2018-09-22T18:14:47.655Z,12.02
2018-09-22T18:17:15.826Z,12.00
2018-09-22T18:19:44.004Z,12.04
2018-09-22T18:22:12.207Z,12.09
2018-09-22T18:24:40.389Z,12.04
2018-09-22T18:27:08.533Z,12.08
2018-09-22T18:29:36.663Z,12.05
2018-09-22T18:32:04.923Z,12.03
2018-09-22T18:34:33.118Z,12.00
2018-09-22T18:37:01.274Z,12.05
2018-09-22T18:39:29.440Z,12.01
2018-09-22T18:41:57.538Z,12.04
2018-09-22T18:44:25.652Z,12.08
2018-09-22T18:46:53.788Z,11.95
2018-09-22T18:49:21.988Z,11.98
2018-09-22T18:51:50.158Z,11.97
2018-09-22T18:54:18.265Z,11.90
2018-09-22T18:56:46.409Z,11.92
2018-09-22T18:59:14.664Z,11.91
2018-09-22T19:01:42.868Z,11.89
2018-09-22T19:04:11.020Z,11.87
2018-09-22T19:06:39.173Z,11.95
2018-09-22T19:09:08.568Z,11.93
2018-09-22T19:11:36.780Z,11.87
2018-09-22T19:14:09.828Z,11.90
2018-09-22T19:16:42.062Z,11.85
2018-09-22T19:19:11.741Z,11.88
2018-09-22T19:21:56.609Z,11.88
2018-09-22T19:24:31.230Z,11.85
2018-09-22T19:27:04.929Z,11.85
2018-09-22T19:29:37.412Z,11.90
2018-09-22T19:32:11.024Z,11.85
2018-09-22T19:34:45.531Z,11.82
2018-09-22T19:37:20.555Z,11.84
2018-09-22T19:39:54.386Z,11.78
2018-09-22T19:42:28.331Z,11.72
2018-09-22T19:45:01.136Z,11.82
2018-09-22T19:47:34.735Z,11.80
2018-09-22T19:50:06.635Z,11.72
2018-09-22T19:52:39.833Z,11.62
2018-09-22T19:55:08.028Z,11.60
2018-09-22T19:57:36.259Z,11.52
2018-09-22T20:00:04.922Z,11.49
2018-09-22T20:02:33.073Z,11.48
2018-09-22T20:05:01.242Z,11.45
2018-09-22T20:07:29.401Z,11.49
2018-09-22T20:09:57.569Z,11.48
2018-09-22T20:12:25.824Z,11.36
2018-09-22T20:14:53.966Z,11.36
2018-09-22T20:17:22.146Z,11.29
2018-09-22T20:19:50.292Z,11.24
2018-09-22T20:22:18.472Z,11.29
2018-09-22T20:24:46.678Z,11.23
2018-09-22T20:27:14.857Z,11.23
2018-09-22T20:29:43.348Z,11.07
2018-09-22T20:32:11.600Z,11.09
2018-09-22T20:34:39.804Z,11.01
2018-09-22T20:37:07.961Z,10.93
2018-09-22T20:39:36.109Z,10.83
2018-09-22T20:42:04.278Z,10.86
2018-09-22T20:44:32.469Z,10.81
2018-09-22T20:47:00.586Z,10.83
2018-09-22T20:49:28.792Z,10.82
2018-09-22T20:51:56.952Z,10.77
2018-09-22T20:54:25.134Z,10.74
2018-09-22T20:56:53.322Z,10.82
2018-09-22T20:59:21.495Z,10.87
2018-09-22T21:01:49.681Z,10.77
2018-09-22T21:04:17.842Z,10.63
2018-09-22T21:06:46.003Z,10.57
2018-09-22T21:09:14.109Z,10.48
2018-09-22T21:11:42.249Z,10.51
2018-09-22T21:14:10.405Z,10.58
2018-09-22T21:16:38.754Z,10.55
2018-09-22T21:19:06.933Z,10.51
2018-09-22T21:21:35.121Z,10.49
2018-09-22T21:24:03.264Z,10.38
2018-09-22T21:26:31.427Z,10.35
2018-09-22T21:28:59.840Z,10.38
2018-09-22T21:31:28.166Z,10.34
2018-09-22T21:33:56.324Z,10.43
2018-09-22T21:36:25.323Z,10.35
2018-09-22T21:38:53.500Z,10.33
2018-09-22T21:41:21.661Z,10.47
2018-09-22T21:43:50.469Z,10.38
2018-09-22T21:46:18.668Z,10.51
2018-09-22T21:48:46.852Z,10.38
2018-09-22T21:51:15.033Z,10.36
2018-09-22T21:53:43.968Z,10.45
2018-09-22T21:56:12.161Z,10.53
2018-09-22T21:58:40.283Z,10.51
2018-09-22T22:01:13.835Z,10.39
2018-09-22T22:03:42.208Z,10.36
2018-09-22T22:06:10.408Z,10.31
2018-09-22T22:08:38.776Z,10.34
2018-09-22T22:11:06.964Z,10.44
2018-09-22T22:13:35.095Z,10.57
2018-09-22T22:16:03.268Z,10.65
2018-09-22T22:18:31.446Z,10.59
2018-09-22T22:20:59.600Z,10.51
2018-09-22T22:23:27.716Z,10.49
2018-09-22T22:25:55.887Z,10.45
2018-09-22T22:28:24.044Z,10.51
2018-09-22T22:30:52.233Z,10.44
2018-09-22T22:33:20.405Z,10.52
2018-09-22T22:35:48.557Z,10.58
2018-09-22T22:38:16.678Z,10.54
2018-09-22T22:40:44.845Z,10.55
2018-09-22T22:43:13.045Z,10.48
2018-09-22T22:45:41.249Z,10.37
2018-09-22T22:48:09.400Z,10.45
2018-09-22T22:50:37.538Z,10.41
2018-09-22T22:53:05.672Z,10.30
2018-09-22T22:55:33.842Z,10.36
2018-09-22T22:58:02.012Z,10.21
2018-09-22T23:00:30.185Z,10.18
2018-09-22T23:02:58.344Z,10.13
2018-09-22T23:05:26.506Z,10.15
2018-09-22T23:07:54.668Z,10.01
2018-09-22T23:10:22.793Z,10.04
2018-09-22T23:12:50.935Z,10.09
2018-09-22T23:15:19.101Z,10.08
2018-09-22T23:17:47.258Z,10.06
2018-09-22T23:20:15.397Z,10.04
2018-09-22T23:22:43.545Z,10.05
2018-09-22T23:25:11.687Z,10.04
2018-09-22T23:27:39.887Z,9.95
2018-09-22T23:30:08.062Z,9.91
2018-09-22T23:32:36.215Z,9.93
2018-09-22T23:35:04.424Z,9.92
2018-09-22T23:37:32.563Z,9.88
2018-09-22T23:40:00.727Z,9.96
2018-09-22T23:42:28.969Z,9.99
2018-09-22T23:44:57.189Z,10.01
2018-09-22T23:47:25.348Z,9.85
2018-09-22T23:49:53.526Z,9.89
2018-09-22T23:52:21.741Z,9.95
2018-09-22T23:54:49.868Z,9.99
2018-09-22T23:57:18.071Z,9.92
2018-09-22T23:59:46.227Z,9.91
